Decoded Metar for KVTN (VALENTINE in NE, USA) (IATA:VTN) | Meteo·Mobile Aviation Weather
aviador You're here:

KVTN Decoded Metar

VALENTINE in NE, USA
Report Time2018-10-17 19:52:00
UTC Time2018-10-17 20:45:08
Flight Rules vfr VFR
Wind270° at 09 kt
W.Decomp.*RWY 21: 5.5 kt HW 7.1 kt RCW
RWY 32: 4.8 kt HW 7.6 kt LCW
W.Rank270° ranks 19
Current wind is above 270° avg. (7.3)
Visibility9999 m
Phenomena:N/A
Clouds:N/A
Expected CloudBase > 8,000 ft AGL from Temp-Dew spread
CeilingNone
Temp21°C (ISA +11)
Dew Point01°C (27% RH)
AAT16.0°C
QNH1029 hPa
Density Alt3,438 ft
Elevation2,585 ft
Report Wrong Elevation
Raw Report
KVTN 171952Z AUTO 27009KT 10SM CLR 21/01 A3038 RMK AO2 SLP293
T02110006=

Extra information for KVTN:More info

Metar Taf Metar & Taf Last 4 Metars F.Rules Stats Wind Profile Meteogram Temp Stats Airport Information Weather charts Add Link Nearby VenuesMetar ALERT Operation Metar Decoded Social comments

AIRNAV info for KVTN